createdAt,value
2022-09-28T00:00:41.277Z,100.00
2022-09-28T00:02:43.409Z,100.00
2022-09-28T00:04:45.518Z,100.00
2022-09-28T00:06:47.710Z,100.00
2022-09-28T00:08:52.721Z,100.00
2022-09-28T00:10:58.041Z,100.00
2022-09-28T00:13:01.453Z,100.00
2022-09-28T00:15:03.818Z,100.00
2022-09-28T00:17:05.812Z,100.00
2022-09-28T00:19:08.381Z,100.00
2022-09-28T00:21:18.853Z,100.00
2022-09-28T00:23:20.825Z,100.00
2022-09-28T00:25:25.012Z,100.00
2022-09-28T00:27:26.954Z,100.00
2022-09-28T00:29:31.652Z,100.00
2022-09-28T00:31:34.734Z,100.00
2022-09-28T00:33:43.055Z,100.00
2022-09-28T00:35:45.485Z,100.00
2022-09-28T00:37:50.394Z,100.00
2022-09-28T00:39:53.111Z,100.00
2022-09-28T00:41:56.110Z,100.00
2022-09-28T00:44:38.771Z,100.00
2022-09-28T00:46:44.202Z,100.00
2022-09-28T00:49:14.997Z,100.00
2022-09-28T00:51:17.663Z,100.00
2022-09-28T00:53:26.917Z,100.00
2022-09-28T00:55:41.026Z,100.00
2022-09-28T00:57:47.373Z,100.00
2022-09-28T00:59:50.255Z,100.00
2022-09-28T01:01:53.006Z,100.00
2022-09-28T01:03:59.326Z,100.00
2022-09-28T01:06:03.505Z,100.00
2022-09-28T01:08:06.314Z,100.00
2022-09-28T01:10:08.903Z,100.00
2022-09-28T01:12:10.846Z,100.00
2022-09-28T01:14:13.488Z,100.00
2022-09-28T01:16:35.886Z,100.00
2022-09-28T01:19:11.845Z,100.00
2022-09-28T01:21:20.832Z,100.00
2022-09-28T01:24:27.567Z,100.00
2022-09-28T01:26:52.040Z,100.00
2022-09-28T01:28:59.666Z,100.00
2022-09-28T01:31:13.424Z,100.00
2022-09-28T01:33:22.114Z,100.00
2022-09-28T01:35:24.329Z,100.00
2022-09-28T01:37:36.177Z,100.00
2022-09-28T01:39:41.548Z,100.00
2022-09-28T01:41:46.144Z,100.00
2022-09-28T01:43:55.272Z,100.00
2022-09-28T01:46:13.662Z,100.00
2022-09-28T01:48:25.682Z,100.00
2022-09-28T01:50:29.671Z,100.00
2022-09-28T01:52:41.066Z,100.00
2022-09-28T01:54:52.081Z,100.00
2022-09-28T01:57:26.701Z,100.00
2022-09-28T01:59:29.829Z,100.00
2022-09-28T02:01:40.690Z,100.00
2022-09-28T02:04:04.621Z,100.00
2022-09-28T02:06:20.407Z,100.00
2022-09-28T02:08:48.710Z,100.00
2022-09-28T02:10:57.565Z,100.00
2022-09-28T02:13:04.823Z,100.00
2022-09-28T02:15:21.900Z,100.00
2022-09-28T02:17:23.874Z,100.00
2022-09-28T02:19:27.725Z,100.00
2022-09-28T02:21:44.272Z,100.00
2022-09-28T02:23:56.541Z,100.00
2022-09-28T02:26:10.745Z,100.00
2022-09-28T02:28:15.891Z,100.00
2022-09-28T02:30:18.319Z,100.00
2022-09-28T02:32:20.287Z,100.00
2022-09-28T02:34:22.324Z,100.00
2022-09-28T02:36:26.520Z,100.00
2022-09-28T02:38:28.478Z,100.00
2022-09-28T02:40:33.084Z,100.00
2022-09-28T02:42:44.492Z,100.00
2022-09-28T02:45:21.983Z,100.00
2022-09-28T02:47:58.577Z,100.00
2022-09-28T02:50:37.887Z,100.00
2022-09-28T02:53:14.258Z,100.00
2022-09-28T02:55:46.153Z,100.00
2022-09-28T02:57:50.864Z,100.00
2022-09-28T03:00:10.679Z,100.00
2022-09-28T03:02:29.363Z,100.00
2022-09-28T03:04:59.851Z,100.00
2022-09-28T03:07:26.667Z,100.00
2022-09-28T03:09:43.343Z,100.00
2022-09-28T03:11:57.324Z,100.00
2022-09-28T03:13:59.431Z,100.00
2022-09-28T03:16:10.538Z,100.00
2022-09-28T03:18:13.014Z,100.00
2022-09-28T03:20:15.089Z,100.00
2022-09-28T03:22:17.017Z,100.00
2022-09-28T03:24:18.993Z,100.00
2022-09-28T03:26:20.959Z,100.00
2022-09-28T03:28:23.308Z,100.00
2022-09-28T03:30:25.465Z,100.00
2022-09-28T03:32:27.505Z,100.00
2022-09-28T03:34:29.584Z,100.00
2022-09-28T03:36:31.506Z,100.00
2022-09-28T03:38:33.508Z,100.00
2022-09-28T03:40:35.506Z,100.00
2022-09-28T03:42:37.927Z,100.00
2022-09-28T03:44:39.877Z,100.00
2022-09-28T03:46:41.840Z,100.00
2022-09-28T03:48:43.820Z,100.00
2022-09-28T03:50:45.911Z,100.00
2022-09-28T03:52:47.907Z,100.00
2022-09-28T03:54:49.861Z,100.00
2022-09-28T03:56:52.077Z,100.00
2022-09-28T03:58:54.010Z,100.00
2022-09-28T04:01:04.544Z,100.00
2022-09-28T04:03:06.631Z,100.00
2022-09-28T04:05:09.415Z,100.00
2022-09-28T04:07:11.333Z,100.00
2022-09-28T04:09:13.293Z,100.00
2022-09-28T04:11:15.269Z,100.00
2022-09-28T04:13:17.229Z,100.00
2022-09-28T04:15:19.178Z,100.00
2022-09-28T04:17:21.147Z,100.00
2022-09-28T04:19:23.174Z,100.00
2022-09-28T04:21:25.324Z,100.00
2022-09-28T04:23:28.260Z,100.00
2022-09-28T04:25:30.222Z,100.00
2022-09-28T04:27:50.624Z,100.00
2022-09-28T04:29:52.606Z,100.00
2022-09-28T04:31:55.407Z,100.00
2022-09-28T04:33:57.963Z,100.00
2022-09-28T04:36:00.723Z,100.00
2022-09-28T04:38:02.592Z,100.00
2022-09-28T04:40:05.133Z,100.00
2022-09-28T04:42:09.139Z,100.00
2022-09-28T04:44:11.100Z,100.00
2022-09-28T04:46:13.093Z,100.00
2022-09-28T04:48:15.076Z,100.00
2022-09-28T04:50:17.129Z,100.00
2022-09-28T04:52:19.226Z,100.00
2022-09-28T04:54:21.164Z,100.00
2022-09-28T04:56:23.159Z,100.00
2022-09-28T04:58:25.171Z,100.00
2022-09-28T05:00:27.176Z,100.00
2022-09-28T05:02:29.646Z,99.85
2022-09-28T05:04:31.821Z,100.00
2022-09-28T05:06:33.835Z,100.00
2022-09-28T05:08:36.038Z,100.00
2022-09-28T05:10:40.541Z,100.00
2022-09-28T05:12:42.509Z,100.00
2022-09-28T05:14:44.505Z,100.00
2022-09-28T05:16:46.985Z,100.00
2022-09-28T05:18:49.086Z,100.00
2022-09-28T05:20:51.068Z,100.00
2022-09-28T05:22:53.010Z,100.00
2022-09-28T05:24:55.107Z,100.00
2022-09-28T05:26:57.246Z,100.00
2022-09-28T05:28:59.210Z,100.00
2022-09-28T05:31:02.387Z,100.00
2022-09-28T05:33:04.857Z,100.00
2022-09-28T05:35:07.694Z,100.00
2022-09-28T05:37:09.659Z,100.00
2022-09-28T05:39:11.851Z,100.00
2022-09-28T05:41:13.924Z,100.00
2022-09-28T05:43:15.895Z,100.00
2022-09-28T05:45:17.844Z,100.00
2022-09-28T05:47:19.822Z,100.00
2022-09-28T05:49:21.776Z,100.00
2022-09-28T05:51:25.419Z,100.00
2022-09-28T05:53:27.400Z,100.00
2022-09-28T05:55:29.940Z,100.00
2022-09-28T05:57:31.939Z,100.00
2022-09-28T05:59:35.263Z,100.00
2022-09-28T06:01:37.303Z,100.00
2022-09-28T06:03:39.327Z,100.00
2022-09-28T06:05:41.638Z,100.00
2022-09-28T06:07:43.645Z,100.00
2022-09-28T06:09:45.640Z,100.00
2022-09-28T06:11:48.438Z,100.00
2022-09-28T06:13:53.585Z,100.00
2022-09-28T06:15:55.630Z,100.00
2022-09-28T06:18:01.746Z,100.00
2022-09-28T06:20:03.775Z,100.00
2022-09-28T06:22:05.826Z,100.00
2022-09-28T06:24:07.878Z,100.00
2022-09-28T06:26:09.823Z,100.00
2022-09-28T06:28:13.922Z,100.00
2022-09-28T06:30:15.981Z,100.00
2022-09-28T06:32:17.938Z,100.00
2022-09-28T06:34:21.524Z,100.00
2022-09-28T06:36:23.708Z,100.00
2022-09-28T06:38:25.649Z,100.00
2022-09-28T06:40:28.072Z,100.00
2022-09-28T06:42:30.115Z,100.00
2022-09-28T06:44:32.430Z,100.00
2022-09-28T06:46:34.483Z,100.00
2022-09-28T06:48:36.603Z,100.00
2022-09-28T06:50:40.456Z,99.81
2022-09-28T06:52:42.439Z,98.58
2022-09-28T06:54:44.397Z,98.42
2022-09-28T06:56:46.379Z,98.23
2022-09-28T06:58:48.561Z,98.83
2022-09-28T07:00:51.611Z,98.46
2022-09-28T07:02:53.584Z,97.75
2022-09-28T07:04:55.686Z,98.33
2022-09-28T07:06:59.169Z,98.09
2022-09-28T07:09:28.629Z,98.34
2022-09-28T07:11:27.008Z,97.85
2022-09-28T07:13:48.802Z,96.59
2022-09-28T07:15:59.554Z,96.88
2022-09-28T07:18:03.951Z,97.08
2022-09-28T07:20:16.494Z,95.87
2022-09-28T07:22:30.973Z,96.79
2022-09-28T07:24:40.870Z,95.85
2022-09-28T07:26:45.464Z,96.19
2022-09-28T07:28:47.432Z,95.73
2022-09-28T07:30:49.521Z,95.40
2022-09-28T07:32:51.832Z,95.88
2022-09-28T07:34:58.726Z,95.60
2022-09-28T07:37:01.141Z,94.90
2022-09-28T07:39:03.608Z,94.66
2022-09-28T07:41:11.494Z,94.56
2022-09-28T07:43:13.483Z,93.73
2022-09-28T07:45:15.607Z,92.75
2022-09-28T07:47:19.073Z,93.09
2022-09-28T07:49:23.004Z,91.30
2022-09-28T07:51:24.961Z,92.15
2022-09-28T07:53:27.010Z,91.32
2022-09-28T07:55:28.973Z,92.19
2022-09-28T07:57:33.279Z,92.26
2022-09-28T07:59:35.279Z,91.31
2022-09-28T08:01:37.294Z,90.23
2022-09-28T08:03:39.416Z,90.42
2022-09-28T08:05:42.943Z,90.37
2022-09-28T08:07:45.146Z,89.54
2022-09-28T08:09:47.130Z,90.03
2022-09-28T08:11:49.853Z,87.47
2022-09-28T08:13:55.487Z,89.53
2022-09-28T08:16:00.964Z,89.27
2022-09-28T08:18:05.974Z,88.72
2022-09-28T08:20:27.215Z,86.23
2022-09-28T08:22:32.346Z,87.51
2022-09-28T08:24:34.343Z,85.82
2022-09-28T08:26:36.309Z,83.45
2022-09-28T08:28:39.251Z,85.13
2022-09-28T08:30:41.464Z,84.05
2022-09-28T08:32:49.429Z,83.27
2022-09-28T08:34:51.360Z,84.21
2022-09-28T08:36:56.861Z,84.33
2022-09-28T08:38:58.839Z,83.88
2022-09-28T08:41:16.032Z,83.23
2022-09-28T08:43:52.223Z,82.60
2022-09-28T08:45:54.215Z,84.69
2022-09-28T08:48:20.336Z,84.36
2022-09-28T08:50:26.515Z,83.68
2022-09-28T08:52:31.789Z,82.80
2022-09-28T08:55:09.161Z,81.97
2022-09-28T08:57:22.957Z,83.33
2022-09-28T08:59:28.505Z,81.28
2022-09-28T09:01:38.509Z,81.50
2022-09-28T09:03:41.945Z,82.45
2022-09-28T09:06:05.836Z,81.64
2022-09-28T09:08:25.806Z,81.84
2022-09-28T09:10:58.023Z,80.09
2022-09-28T09:13:37.258Z,81.37
2022-09-28T09:16:15.368Z,79.85
2022-09-28T09:18:54.513Z,80.47
2022-09-28T09:20:58.642Z,79.77
2022-09-28T09:23:03.332Z,79.54
2022-09-28T09:25:28.597Z,77.01
2022-09-28T09:27:43.027Z,76.08
2022-09-28T09:29:56.530Z,74.48
2022-09-28T09:32:21.912Z,73.86
2022-09-28T09:34:29.596Z,73.96
2022-09-28T09:37:14.014Z,72.94
2022-09-28T09:39:56.169Z,73.83
2022-09-28T09:42:36.989Z,74.29
2022-09-28T09:44:58.775Z,74.18
2022-09-28T09:47:08.177Z,75.87
2022-09-28T09:49:44.181Z,73.97
2022-09-28T09:52:46.699Z,74.85
2022-09-28T09:54:51.586Z,76.93
2022-09-28T09:57:39.636Z,76.02
2022-09-28T09:59:42.354Z,76.17
2022-09-28T10:01:44.334Z,75.90
2022-09-28T10:03:48.259Z,76.19
2022-09-28T10:06:03.931Z,76.40
2022-09-28T10:08:08.774Z,77.66
2022-09-28T10:10:24.172Z,77.32
2022-09-28T10:12:26.378Z,76.82
2022-09-28T10:14:28.573Z,77.33
2022-09-28T10:16:31.176Z,74.66
2022-09-28T10:18:33.144Z,76.40
2022-09-28T10:20:37.906Z,75.88
2022-09-28T10:22:39.862Z,74.56
2022-09-28T10:24:46.756Z,73.79
2022-09-28T10:26:53.151Z,73.59
2022-09-28T10:29:04.605Z,71.74
2022-09-28T10:31:48.376Z,69.25
2022-09-28T10:33:50.272Z,67.43
2022-09-28T10:35:52.238Z,69.13
2022-09-28T10:38:14.490Z,68.02
2022-09-28T10:40:55.386Z,64.80
2022-09-28T10:43:06.216Z,63.95
2022-09-28T10:45:20.715Z,61.71
2022-09-28T10:47:25.512Z,66.61
2022-09-28T10:49:28.663Z,64.40
2022-09-28T10:51:44.719Z,58.91
2022-09-28T10:54:01.582Z,57.82
2022-09-28T10:56:21.130Z,58.37
2022-09-28T10:58:39.608Z,56.82
2022-09-28T11:00:42.766Z,59.95
2022-09-28T11:02:44.716Z,54.47
2022-09-28T11:04:55.715Z,53.40
2022-09-28T11:09:31.094Z,49.49
2022-09-28T11:11:41.020Z,50.19
2022-09-28T11:13:51.071Z,52.08
2022-09-28T11:15:53.412Z,54.83
2022-09-28T11:17:55.352Z,46.60
2022-09-28T11:19:59.753Z,55.90
2022-09-28T11:22:01.726Z,48.11
2022-09-28T11:24:21.825Z,44.60
2022-09-28T11:26:24.114Z,53.31
2022-09-28T11:28:33.323Z,42.19
2022-09-28T11:30:51.330Z,43.73
2022-09-28T11:32:56.870Z,45.90
2022-09-28T11:35:00.411Z,49.42
2022-09-28T11:37:33.747Z,40.68
2022-09-28T11:39:52.723Z,41.25
2022-09-28T11:42:25.191Z,41.19
2022-09-28T11:44:37.569Z,42.10
2022-09-28T11:47:07.588Z,41.82
2022-09-28T11:49:43.463Z,39.71
2022-09-28T11:51:45.652Z,43.04
2022-09-28T11:54:26.760Z,37.66
2022-09-28T11:56:39.243Z,41.05
2022-09-28T11:58:53.166Z,40.94
2022-09-28T12:01:19.005Z,42.69
2022-09-28T12:03:48.648Z,42.09
2022-09-28T12:06:02.342Z,41.55
2022-09-28T12:08:27.448Z,42.48
2022-09-28T12:11:01.632Z,42.70
2022-09-28T12:13:16.777Z,43.97
2022-09-28T12:15:29.423Z,46.44
2022-09-28T12:17:41.121Z,46.44
2022-09-28T12:19:49.439Z,47.02
2022-09-28T12:21:55.225Z,48.15
2022-09-28T12:24:40.503Z,48.12
2022-09-28T12:26:47.028Z,49.44
2022-09-28T12:28:50.028Z,50.62
2022-09-28T12:30:52.024Z,50.78
2022-09-28T12:32:56.929Z,51.78
2022-09-28T12:34:58.904Z,52.26
2022-09-28T12:37:38.447Z,52.10
2022-09-28T12:39:57.471Z,53.06
2022-09-28T12:42:31.020Z,52.18
2022-09-28T12:45:03.091Z,53.10
2022-09-28T12:47:15.474Z,53.67
2022-09-28T12:51:48.432Z,55.25
2022-09-28T12:54:16.298Z,56.15
2022-09-28T12:56:42.542Z,56.77
2022-09-28T12:59:10.028Z,57.11
2022-09-28T13:01:22.149Z,57.36
2022-09-28T13:03:47.262Z,58.79
2022-09-28T13:06:10.817Z,58.54
2022-09-28T13:08:29.797Z,59.98
2022-09-28T13:11:07.885Z,57.98
2022-09-28T13:13:37.378Z,58.32
2022-09-28T13:16:19.438Z,58.65
2022-09-28T13:19:09.993Z,59.62
2022-09-28T13:21:41.493Z,59.43
2022-09-28T13:23:47.068Z,60.41
2022-09-28T13:26:23.707Z,59.82
2022-09-28T13:28:27.152Z,58.61
2022-09-28T13:30:29.574Z,58.11
2022-09-28T13:32:31.582Z,57.76
2022-09-28T13:34:35.340Z,57.39
2022-09-28T13:36:37.669Z,58.08
2022-09-28T13:38:47.608Z,57.88
2022-09-28T13:41:04.662Z,58.64
2022-09-28T13:43:19.670Z,58.10
2022-09-28T13:45:22.009Z,57.55
2022-09-28T13:47:44.530Z,58.17
2022-09-28T13:50:18.647Z,58.98
2022-09-28T13:53:05.630Z,59.21
2022-09-28T13:55:34.453Z,59.32
2022-09-28T13:57:53.437Z,58.91
2022-09-28T14:00:28.528Z,59.06
2022-09-28T14:02:40.615Z,59.00
2022-09-28T14:05:00.193Z,59.84
2022-09-28T14:07:16.847Z,60.94
2022-09-28T14:10:07.984Z,61.26
2022-09-28T14:12:47.565Z,62.43
2022-09-28T14:14:52.831Z,61.75
2022-09-28T14:17:21.226Z,61.95
2022-09-28T14:19:31.510Z,61.97
2022-09-28T14:22:17.635Z,62.71
2022-09-28T14:24:45.070Z,63.06
2022-09-28T14:27:14.833Z,64.31
2022-09-28T14:29:31.499Z,63.87
2022-09-28T14:31:33.689Z,64.10
2022-09-28T14:33:38.803Z,64.09
2022-09-28T14:35:41.321Z,63.83
2022-09-28T14:38:02.145Z,63.54
2022-09-28T14:41:10.689Z,65.04
2022-09-28T14:43:34.030Z,65.37
2022-09-28T14:45:36.615Z,65.71
2022-09-28T14:47:42.330Z,65.14
2022-09-28T14:49:45.659Z,65.28
2022-09-28T14:51:54.217Z,65.59
2022-09-28T14:54:10.263Z,66.33
2022-09-28T14:56:12.419Z,64.98
2022-09-28T14:58:25.056Z,66.22
2022-09-28T15:00:30.356Z,66.54
2022-09-28T15:02:33.166Z,65.72
2022-09-28T15:04:39.055Z,66.49
2022-09-28T15:06:48.223Z,65.98
2022-09-28T15:08:50.165Z,64.82
2022-09-28T15:10:52.578Z,65.37
2022-09-28T15:12:56.140Z,65.08
2022-09-28T15:15:03.649Z,66.02
2022-09-28T15:17:10.149Z,65.64
2022-09-28T15:19:43.800Z,66.97
2022-09-28T15:21:47.783Z,67.61
2022-09-28T15:23:50.312Z,66.30
2022-09-28T15:25:53.422Z,66.73
2022-09-28T15:28:04.640Z,67.44
2022-09-28T15:30:32.955Z,68.20
2022-09-28T15:32:34.890Z,67.82
2022-09-28T15:34:52.520Z,67.39
2022-09-28T15:36:56.506Z,67.39
2022-09-28T15:39:05.676Z,68.97
2022-09-28T15:41:07.643Z,68.84
2022-09-28T15:43:33.225Z,70.08
2022-09-28T15:45:37.179Z,68.69
2022-09-28T15:47:40.155Z,68.32
2022-09-28T15:49:45.548Z,69.71
2022-09-28T15:51:53.384Z,70.19
2022-09-28T15:54:19.613Z,71.45
2022-09-28T15:56:21.784Z,70.71
2022-09-28T15:58:24.414Z,70.90
2022-09-28T16:00:30.225Z,71.80
2022-09-28T16:02:32.252Z,71.38
2022-09-28T16:04:50.623Z,73.63
2022-09-28T16:07:10.669Z,74.32
2022-09-28T16:09:31.816Z,73.85
2022-09-28T16:11:38.879Z,69.46
2022-09-28T16:14:19.615Z,70.00
2022-09-28T16:16:29.941Z,70.94
2022-09-28T16:18:33.833Z,70.46
2022-09-28T16:20:42.537Z,71.61
2022-09-28T16:22:44.478Z,72.11
2022-09-28T16:24:57.453Z,74.69
2022-09-28T16:27:39.207Z,77.15
2022-09-28T16:29:42.877Z,78.93
2022-09-28T16:31:52.673Z,79.73
2022-09-28T16:34:16.926Z,83.19
2022-09-28T16:36:18.866Z,81.49
2022-09-28T16:38:21.108Z,81.85
2022-09-28T16:40:23.169Z,82.08
2022-09-28T16:42:25.921Z,81.58
2022-09-28T16:44:30.041Z,84.66
2022-09-28T16:46:37.221Z,82.26
2022-09-28T16:48:48.660Z,84.26
2022-09-28T16:50:51.029Z,84.47
2022-09-28T16:53:34.257Z,88.03
2022-09-28T16:55:40.712Z,86.40
2022-09-28T16:57:49.993Z,89.05
2022-09-28T16:59:51.988Z,88.31
2022-09-28T17:01:54.411Z,89.93
2022-09-28T17:03:56.414Z,88.04
2022-09-28T17:05:58.434Z,89.73
2022-09-28T17:08:03.327Z,89.84
2022-09-28T17:10:29.565Z,92.00
2022-09-28T17:12:31.576Z,92.21
2022-09-28T17:14:33.563Z,90.96
2022-09-28T17:17:06.289Z,93.16
2022-09-28T17:18:58.970Z,92.90
2022-09-28T17:21:03.505Z,95.14
2022-09-28T17:23:05.527Z,93.67
2022-09-28T17:25:10.164Z,95.39
2022-09-28T17:27:16.899Z,93.83
2022-09-28T17:29:18.989Z,93.70
2022-09-28T17:31:21.004Z,93.58
2022-09-28T17:33:22.974Z,93.11
2022-09-28T17:35:25.765Z,93.85
2022-09-28T17:37:28.285Z,92.35
2022-09-28T17:39:31.775Z,91.96
2022-09-28T17:41:34.347Z,92.60
2022-09-28T17:43:36.323Z,92.86
2022-09-28T17:45:41.748Z,92.20
2022-09-28T17:47:44.129Z,92.61
2022-09-28T17:49:46.201Z,94.16
2022-09-28T17:51:50.203Z,92.51
2022-09-28T17:53:53.213Z,92.01
2022-09-28T17:55:55.262Z,92.85
2022-09-28T17:57:58.209Z,92.63
2022-09-28T18:00:00.397Z,93.60
2022-09-28T18:02:02.788Z,93.09
2022-09-28T18:04:05.930Z,93.77
2022-09-28T18:06:13.261Z,92.98
2022-09-28T18:08:18.857Z,93.36
2022-09-28T18:10:22.849Z,92.20
2022-09-28T18:12:25.151Z,94.08
2022-09-28T18:14:27.326Z,94.61
2022-09-28T18:16:29.418Z,94.69
2022-09-28T18:18:33.323Z,94.25
2022-09-28T18:20:36.117Z,94.48
2022-09-28T18:22:38.191Z,96.60
2022-09-28T18:24:40.174Z,96.10
2022-09-28T18:26:42.168Z,94.93
2022-09-28T18:28:44.196Z,95.29
2022-09-28T18:30:46.270Z,95.75
2022-09-28T18:32:48.322Z,96.35
2022-09-28T18:34:50.318Z,93.58
2022-09-28T18:36:52.406Z,93.90
2022-09-28T18:38:54.440Z,94.75
2022-09-28T18:40:56.626Z,94.19
2022-09-28T18:42:58.696Z,95.09
2022-09-28T18:45:00.708Z,95.12
2022-09-28T18:47:02.711Z,94.56
2022-09-28T18:49:05.137Z,93.75
2022-09-28T18:51:11.284Z,95.57
2022-09-28T18:53:13.407Z,93.28
2022-09-28T18:55:15.955Z,95.33
2022-09-28T18:57:18.400Z,94.85
2022-09-28T18:59:20.385Z,95.02
2022-09-28T19:01:31.145Z,95.31
2022-09-28T19:03:33.765Z,96.21
2022-09-28T19:05:35.743Z,96.58
2022-09-28T19:07:37.777Z,95.19
2022-09-28T19:09:43.994Z,94.33
2022-09-28T19:11:46.188Z,93.80
2022-09-28T19:13:48.190Z,93.40
2022-09-28T19:15:50.169Z,94.29
2022-09-28T19:17:52.298Z,94.55
2022-09-28T19:19:54.343Z,94.68
2022-09-28T19:21:56.680Z,93.54
2022-09-28T19:24:02.567Z,94.60
2022-09-28T19:26:14.120Z,94.98
2022-09-28T19:28:16.127Z,95.33
2022-09-28T19:30:18.187Z,95.32
2022-09-28T19:32:20.186Z,95.73
2022-09-28T19:34:24.422Z,95.95
2022-09-28T19:36:28.608Z,95.89
2022-09-28T19:38:35.054Z,96.31
2022-09-28T19:40:37.385Z,95.72
2022-09-28T19:42:39.684Z,97.37
2022-09-28T19:44:41.923Z,96.56
2022-09-28T19:46:44.115Z,96.66
2022-09-28T19:48:47.471Z,96.61
2022-09-28T19:51:04.511Z,97.19
2022-09-28T19:53:07.565Z,96.60
2022-09-28T19:55:09.733Z,95.10
2022-09-28T19:57:13.150Z,94.91
2022-09-28T19:59:15.277Z,95.05
2022-09-28T20:01:17.330Z,95.05
2022-09-28T20:03:19.523Z,95.04
2022-09-28T20:05:21.533Z,94.79
2022-09-28T20:07:23.515Z,93.77
2022-09-28T20:09:25.606Z,94.52
2022-09-28T20:11:27.681Z,94.61
2022-09-28T20:13:31.894Z,95.34
2022-09-28T20:15:35.986Z,95.11
2022-09-28T20:17:38.046Z,94.30
2022-09-28T20:19:40.079Z,94.55
2022-09-28T20:21:42.102Z,95.89
2022-09-28T20:23:44.698Z,95.54
2022-09-28T20:25:46.695Z,95.28
2022-09-28T20:27:48.674Z,94.83
2022-09-28T20:29:50.610Z,95.29
2022-09-28T20:31:52.660Z,95.70
2022-09-28T20:33:54.616Z,95.37
2022-09-28T20:35:56.696Z,94.96
2022-09-28T20:38:07.798Z,94.54
2022-09-28T20:40:10.575Z,94.60
2022-09-28T20:42:14.306Z,97.04
2022-09-28T20:44:16.493Z,95.36
2022-09-28T20:46:19.870Z,95.48
2022-09-28T20:48:21.857Z,94.93
2022-09-28T20:50:23.799Z,95.46
2022-09-28T20:52:25.919Z,95.24
2022-09-28T20:54:27.933Z,94.61
2022-09-28T20:56:37.707Z,96.04
2022-09-28T20:58:40.500Z,96.03
2022-09-28T21:00:42.492Z,95.69
2022-09-28T21:02:44.608Z,95.75
2022-09-28T21:04:46.599Z,96.43
2022-09-28T21:06:48.630Z,96.59
2022-09-28T21:08:50.700Z,96.66
2022-09-28T21:10:55.271Z,96.80
2022-09-28T21:12:57.246Z,95.76
2022-09-28T21:15:02.322Z,95.95
2022-09-28T21:17:07.622Z,96.64
2022-09-28T21:19:09.573Z,97.21
2022-09-28T21:21:16.602Z,95.83
2022-09-28T21:23:21.605Z,96.42
2022-09-28T21:25:26.774Z,96.86
2022-09-28T21:27:28.763Z,96.08
2022-09-28T21:29:30.711Z,96.52
2022-09-28T21:31:46.123Z,96.76
2022-09-28T21:33:48.110Z,95.78
2022-09-28T21:35:50.121Z,96.68
2022-09-28T21:37:52.108Z,97.90
2022-09-28T21:39:54.074Z,96.25
2022-09-28T21:41:56.031Z,96.63
2022-09-28T21:43:58.107Z,96.60
2022-09-28T21:46:00.212Z,96.38
2022-09-28T21:48:02.288Z,97.09
2022-09-28T21:50:04.370Z,96.11
2022-09-28T21:52:06.342Z,96.31
2022-09-28T21:54:08.618Z,96.10
2022-09-28T21:56:12.192Z,95.45
2022-09-28T21:58:14.147Z,95.80
2022-09-28T22:00:20.005Z,95.81
2022-09-28T22:02:23.213Z,95.61
2022-09-28T22:04:25.238Z,95.26
2022-09-28T22:06:30.529Z,95.57
2022-09-28T22:08:33.042Z,95.08
2022-09-28T22:10:35.184Z,95.37
2022-09-28T22:12:37.174Z,95.68
2022-09-28T22:14:39.124Z,95.51
2022-09-28T22:16:41.227Z,97.10
2022-09-28T22:18:43.475Z,96.30
2022-09-28T22:20:45.398Z,96.78
2022-09-28T22:22:51.000Z,96.27
2022-09-28T22:24:53.156Z,96.02
2022-09-28T22:26:55.096Z,96.62
2022-09-28T22:29:02.001Z,96.92
2022-09-28T22:31:04.424Z,97.10
2022-09-28T22:33:06.390Z,97.58
2022-09-28T22:35:09.104Z,96.81
2022-09-28T22:37:11.008Z,98.57
2022-09-28T22:39:12.960Z,98.30
2022-09-28T22:41:16.215Z,97.85
2022-09-28T22:43:18.866Z,97.47
2022-09-28T22:45:20.827Z,97.84
2022-09-28T22:47:22.768Z,98.01
2022-09-28T22:49:24.859Z,98.10
2022-09-28T22:51:28.093Z,98.39
2022-09-28T22:53:30.137Z,98.57
2022-09-28T22:55:35.098Z,98.20
2022-09-28T22:57:37.038Z,98.00
2022-09-28T22:59:38.983Z,98.58
2022-09-28T23:01:41.051Z,98.13
2022-09-28T23:03:44.725Z,97.97
2022-09-28T23:05:54.351Z,99.21
2022-09-28T23:07:56.299Z,98.74
2022-09-28T23:09:59.835Z,98.84
2022-09-28T23:12:01.941Z,98.96
2022-09-28T23:14:04.094Z,98.87
2022-09-28T23:16:11.673Z,99.16
2022-09-28T23:18:13.718Z,100.00
2022-09-28T23:20:15.711Z,99.72
2022-09-28T23:22:17.676Z,99.68
2022-09-28T23:24:19.672Z,99.55
2022-09-28T23:26:25.130Z,99.15
2022-09-28T23:28:27.345Z,99.33
2022-09-28T23:30:29.396Z,99.50
2022-09-28T23:32:32.199Z,99.56
2022-09-28T23:34:34.215Z,99.48
2022-09-28T23:36:36.177Z,99.02
2022-09-28T23:38:38.291Z,99.60
2022-09-28T23:40:41.230Z,99.07
2022-09-28T23:42:43.394Z,99.70
2022-09-28T23:44:45.341Z,99.28
2022-09-28T23:46:47.348Z,100.00
2022-09-28T23:48:49.772Z,100.00
2022-09-28T23:50:51.773Z,100.00
2022-09-28T23:52:53.812Z,100.00
2022-09-28T23:54:55.758Z,100.00
2022-09-28T23:56:57.719Z,100.00
2022-09-28T23:58:59.760Z,100.00
